Time;durP1;ratioP1;P1;durP2;ratioP2;P2;SDS_P1;SDS_P2;PMS_P1;PMS_P2;Temp;Humidity;BMP_temperature;BMP_pressure;BME280_temperature;BME280_humidity;BME280_pressure;Samples;Min_cycle;Max_cycle;Signal;HPM_P1;HPM_P2
2022/12/03 00:00:30;;;;;;;30.33;17.63;;;5.10;99.90;;;;;;5072393;28;20039;-80
2022/12/03 00:02:56;;;;;;;32.30;18.77;;;5.20;99.90;;;;;;5072410;28;20425;-80
2022/12/03 00:05:21;;;;;;;33.58;19.33;;;5.10;99.90;;;;;;5072582;28;20458;-80
2022/12/03 00:07:47;;;;;;;32.33;18.38;;;5.20;99.90;;;;;;5071277;28;20112;-80
2022/12/03 00:10:13;;;;;;;31.35;18.92;;;5.20;99.90;;;;;;5076063;28;20012;-80
2022/12/03 00:12:39;;;;;;;33.80;19.27;;;5.30;99.90;;;;;;5071192;28;20059;-81
2022/12/03 00:15:06;;;;;;;34.58;19.63;;;5.20;99.90;;;;;;5070911;28;20008;-81
2022/12/03 00:17:32;;;;;;;38.55;21.70;;;5.20;99.90;;;;;;5070867;28;20032;-80
2022/12/03 00:19:58;;;;;;;35.33;20.35;;;5.10;99.90;;;;;;5071960;28;20028;-80
2022/12/03 00:22:23;;;;;;;34.35;19.85;;;5.20;99.90;;;;;;5072190;28;20024;-81
2022/12/03 00:24:49;;;;;;;30.98;19.40;;;5.10;99.90;;;;;;5075810;28;20490;-81
2022/12/03 00:27:14;;;;;;;32.20;18.88;;;5.20;99.90;;;;;;5072160;28;20025;-81
2022/12/03 00:29:40;;;;;;;30.90;19.27;;;5.10;99.90;;;;;;5071793;28;20025;-80
2022/12/03 00:32:06;;;;;;;30.15;18.65;;;5.20;99.90;;;;;;5070655;28;20023;-81
2022/12/03 00:34:31;;;;;;;32.75;18.42;;;5.20;99.90;;;;;;5071501;28;20025;-81
2022/12/03 00:36:57;;;;;;;35.22;20.17;;;5.20;99.90;;;;;;5071875;28;20452;-80
2022/12/03 00:39:23;;;;;;;30.95;18.02;;;5.30;99.90;;;;;;5071652;28;20020;-80
2022/12/03 00:41:48;;;;;;;30.73;18.25;;;5.30;99.90;;;;;;5071637;28;20025;-81
2022/12/03 00:44:14;;;;;;;28.85;17.65;;;5.30;99.90;;;;;;5071467;28;20499;-80
2022/12/03 00:46:40;;;;;;;29.60;17.95;;;5.30;99.90;;;;;;5071202;28;20031;-80
2022/12/03 00:49:05;;;;;;;31.00;18.65;;;5.30;99.90;;;;;;5071167;28;20031;-80
2022/12/03 00:51:31;;;;;;;30.02;16.98;;;5.30;99.90;;;;;;5071545;28;20486;-80
2022/12/03 00:53:57;;;;;;;28.45;17.75;;;5.40;99.90;;;;;;5071505;28;20016;-80
2022/12/03 00:56:23;;;;;;;29.95;18.58;;;5.30;99.90;;;;;;5071418;28;20020;-80
2022/12/03 00:58:48;;;;;;;30.75;18.73;;;5.30;99.90;;;;;;5072369;28;20020;-80
2022/12/03 01:01:14;;;;;;;29.75;18.55;;;5.30;99.90;;;;;;5071408;28;20481;-80
2022/12/03 01:03:40;;;;;;;32.08;19.38;;;5.40;99.90;;;;;;5072797;28;20027;-80
2022/12/03 01:06:05;;;;;;;29.95;17.48;;;5.40;99.90;;;;;;5071211;28;20028;-80
2022/12/03 01:08:31;;;;;;;31.95;18.95;;;5.40;99.90;;;;;;5070870;28;20024;-80
2022/12/03 01:10:57;;;;;;;34.67;18.52;;;5.50;99.90;;;;;;5071344;28;20028;-80
2022/12/03 01:13:22;;;;;;;34.83;19.23;;;5.40;99.90;;;;;;5070738;28;20032;-80
2022/12/03 01:15:48;;;;;;;30.80;19.17;;;5.40;99.90;;;;;;5069928;28;20021;-80
2022/12/03 01:18:14;;;;;;;30.60;17.70;;;5.40;99.90;;;;;;5073554;28;20012;-80
2022/12/03 01:20:39;;;;;;;30.13;17.70;;;5.40;99.90;;;;;;5070902;28;20024;-80
2022/12/03 01:23:06;;;;;;;28.70;17.10;;;5.50;99.90;;;;;;5069014;28;20028;-80
2022/12/03 01:25:32;;;;;;;30.58;17.92;;;5.50;99.90;;;;;;5069525;28;20505;-80
2022/12/03 01:27:57;;;;;;;27.60;16.70;;;5.50;99.90;;;;;;5069138;28;20017;-80
2022/12/03 01:30:23;;;;;;;26.98;15.75;;;5.40;99.90;;;;;;5066738;28;20387;-80
2022/12/03 01:32:49;;;;;;;27.77;16.63;;;5.50;99.90;;;;;;5070015;28;20458;-80
2022/12/03 01:35:14;;;;;;;25.85;15.57;;;5.50;99.90;;;;;;5069246;28;20086;-80
2022/12/03 01:37:40;;;;;;;27.00;17.15;;;5.50;99.90;;;;;;5070913;28;20078;-80
2022/12/03 01:40:07;;;;;;;28.70;17.15;;;5.50;99.90;;;;;;5069200;28;20509;-80
2022/12/03 01:42:38;;;;;;;28.35;15.82;;;5.50;99.90;;;;;;5070460;28;20531;-81
2022/12/03 01:45:05;;;;;;;24.05;15.02;;;5.40;99.90;;;;;;5069412;28;20033;-80
2022/12/03 01:47:34;;;;;;;27.90;17.00;;;5.30;99.90;;;;;;5070710;28;20024;-80
2022/12/03 01:50:07;;;;;;;23.63;16.40;;;5.40;99.90;;;;;;5068311;28;20013;-80
2022/12/03 01:52:35;;;;;;;27.02;16.55;;;5.40;99.90;;;;;;5070971;28;20024;-80
2022/12/03 01:55:04;;;;;;;26.90;16.05;;;5.40;99.90;;;;;;5069228;28;20048;-80
2022/12/03 01:57:50;;;;;;;25.73;15.90;;;5.50;99.90;;;;;;5070857;28;20048;-80
2022/12/03 02:00:18;;;;;;;26.15;15.77;;;5.50;99.90;;;;;;5070490;28;20083;-80
2022/12/03 02:02:52;;;;;;;25.40;15.52;;;5.50;99.90;;;;;;5069553;28;20036;-80
2022/12/03 02:05:25;;;;;;;28.80;16.15;;;5.40;99.90;;;;;;5067637;28;20120;-80
2022/12/03 02:07:51;;;;;;;26.83;16.25;;;5.50;99.90;;;;;;5070499;28;20021;-80
2022/12/03 02:10:21;;;;;;;24.30;15.43;;;5.40;99.90;;;;;;5068384;28;20021;-80
2022/12/03 02:12:53;;;;;;;24.60;14.77;;;5.40;99.90;;;;;;5070261;28;20029;-80
2022/12/03 02:15:19;;;;;;;24.45;16.10;;;5.40;99.90;;;;;;5074736;28;20066;-80
2022/12/03 02:17:45;;;;;;;26.35;15.82;;;5.50;99.90;;;;;;5070505;28;20021;-80
2022/12/03 02:20:12;;;;;;;29.98;16.40;;;5.50;99.90;;;;;;5077103;28;20025;-80
2022/12/03 02:22:43;;;;;;;30.15;16.60;;;5.60;99.90;;;;;;5075020;28;20028;-80
2022/12/03 02:25:19;;;;;;;24.40;15.23;;;5.50;99.90;;;;;;5070259;28;20040;-80
2022/12/03 02:27:46;;;;;;;22.60;15.25;;;5.60;99.90;;;;;;5068667;28;20048;-80
2022/12/03 02:30:17;;;;;;;25.23;15.63;;;5.60;99.90;;;;;;5070188;28;20099;-80
2022/12/03 02:32:43;;;;;;;25.30;14.75;;;5.50;99.90;;;;;;5070805;28;20025;-81
2022/12/03 02:35:20;;;;;;;26.38;16.13;;;5.60;99.90;;;;;;5074279;28;20020;-81
2022/12/03 02:37:48;;;;;;;25.48;15.77;;;5.60;99.90;;;;;;5072827;28;20017;-81
2022/12/03 02:40:23;;;;;;;24.55;14.38;;;5.60;99.90;;;;;;5074042;28;20172;-81
2022/12/03 02:42:52;;;;;;;24.30;14.93;;;5.60;99.90;;;;;;5073996;28;20025;-81
2022/12/03 02:45:44;;;;;;;24.65;15.32;;;5.70;99.90;;;;;;5071496;28;20012;-81
2022/12/03 02:48:30;;;;;;;;;;;5.60;99.90;;;;;;5068302;28;20559;-81
2022/12/03 02:50:59;;;;;;;26.17;15.65;;;5.60;99.90;;;;;;5073696;28;19904;-81
2022/12/03 02:53:32;;;;;;;24.08;15.68;;;5.50;99.90;;;;;;5073700;28;20024;-81
2022/12/03 02:56:00;;;;;;;22.67;14.48;;;5.50;99.90;;;;;;5073999;28;20020;-81
2022/12/03 02:58:28;;;;;;;24.00;14.73;;;5.50;99.90;;;;;;5073815;28;20103;-81
2022/12/03 03:00:54;;;;;;;23.63;15.00;;;5.50;99.90;;;;;;5073755;28;20025;-80
2022/12/03 03:03:23;;;;;;;22.75;14.52;;;5.50;99.90;;;;;;5073941;28;20028;-81
2022/12/03 03:05:49;;;;;;;25.15;15.38;;;5.50;99.90;;;;;;5073424;28;20029;-81
2022/12/03 03:08:16;;;;;;;22.27;15.25;;;5.60;99.90;;;;;;5073534;28;20028;-80
2022/12/03 03:10:43;;;;;;;22.60;14.45;;;5.60;99.90;;;;;;5073591;28;20016;-80
2022/12/03 03:13:12;;;;;;;22.95;14.25;;;5.50;99.90;;;;;;5073382;28;20021;-80
2022/12/03 03:15:39;;;;;;;22.10;14.05;;;5.50;99.90;;;;;;5075680;28;20044;-80
2022/12/03 03:18:06;;;;;;;24.27;14.77;;;5.50;99.90;;;;;;5073416;28;20029;-80
2022/12/03 03:20:32;;;;;;;22.73;14.43;;;5.50;99.90;;;;;;5073374;28;20033;-80
2022/12/03 03:23:17;;;;;;;21.55;14.18;;;5.40;99.90;;;;;;5075060;28;20205;-80
2022/12/03 03:25:56;;;;;;;23.90;14.75;;;5.20;99.90;;;;;;5071115;28;20040;-80
2022/12/03 03:28:22;;;;;;;24.48;14.55;;;5.10;99.90;;;;;;5073505;28;20116;-80
2022/12/03 03:30:48;;;;;;;22.92;14.85;;;5.20;99.90;;;;;;5073076;28;20024;-80
2022/12/03 03:33:15;;;;;;;23.77;14.85;;;5.20;99.90;;;;;;5071780;28;20024;-80
2022/12/03 03:35:42;;;;;;;25.80;14.68;;;5.30;99.90;;;;;;5073127;28;20017;-80
2022/12/03 03:38:08;;;;;;;24.55;14.48;;;5.30;99.90;;;;;;5077736;28;20030;-80
2022/12/03 03:40:35;;;;;;;20.98;14.02;;;5.30;99.90;;;;;;5072839;28;20023;-81
2022/12/03 03:43:01;;;;;;;20.75;13.40;;;5.30;99.90;;;;;;5071514;28;20032;-80
2022/12/03 03:45:27;;;;;;;21.58;13.15;;;5.30;99.90;;;;;;5071700;28;20025;-81
2022/12/03 03:47:53;;;;;;;21.35;13.50;;;5.30;99.90;;;;;;5072866;28;20029;-80
2022/12/03 03:50:19;;;;;;;20.77;13.75;;;5.30;99.90;;;;;;5074273;28;20498;-80
2022/12/03 03:52:45;;;;;;;22.13;12.40;;;5.30;99.90;;;;;;5072713;28;20074;-80
2022/12/03 03:55:11;;;;;;;20.75;12.77;;;5.30;99.90;;;;;;5070959;28;20548;-81
2022/12/03 03:57:38;;;;;;;23.23;14.30;;;5.30;99.90;;;;;;5072860;28;20021;-81
2022/12/03 04:00:06;;;;;;;19.27;12.80;;;5.30;99.90;;;;;;5073336;28;20025;-80
2022/12/03 04:02:33;;;;;;;18.08;12.18;;;5.30;99.90;;;;;;5074183;28;20032;-80
2022/12/03 04:04:59;;;;;;;21.40;13.48;;;5.30;99.90;;;;;;5072586;28;20112;-80
2022/12/03 04:07:24;;;;;;;17.42;12.52;;;5.20;99.90;;;;;;5072302;28;20103;-80
2022/12/03 04:09:50;;;;;;;20.00;12.40;;;5.10;99.90;;;;;;5072404;28;20463;-81
2022/12/03 04:15:00;;;;;;;22.20;13.73;;;5.10;99.90;;;;;;5071638;28;20046;-80
2022/12/03 04:17:25;;;;;;;18.17;12.20;;;5.10;99.90;;;;;;5072296;28;20017;-80
2022/12/03 04:19:51;;;;;;;17.58;12.07;;;5.20;99.90;;;;;;5072122;28;20460;-80
2022/12/03 04:30:29;;;;;;;19.48;12.52;;;5.10;99.90;;;;;;5071117;28;20054;-80
2022/12/03 04:35:42;;;;;;;18.25;11.93;;;5.10;99.90;;;;;;5069508;28;20066;-80
2022/12/03 04:38:13;;;;;;;19.52;12.35;;;5.10;99.90;;;;;;5070558;28;20013;-80
2022/12/03 04:43:23;;;;;;;17.50;11.43;;;5.10;99.90;;;;;;5069891;28;20077;-80
2022/12/03 04:45:48;;;;;;;21.27;13.68;;;5.10;99.90;;;;;;5071805;28;20020;-80
2022/12/03 04:48:14;;;;;;;17.27;11.40;;;5.10;99.90;;;;;;5070361;28;20497;-81
2022/12/03 04:50:40;;;;;;;20.25;13.02;;;5.10;99.90;;;;;;5071501;28;20016;-79
2022/12/03 04:53:06;;;;;;;18.30;12.40;;;5.10;99.90;;;;;;5071799;28;20016;-80
2022/12/03 04:55:31;;;;;;;20.25;12.25;;;5.00;99.90;;;;;;5070258;28;20021;-80
2022/12/03 04:57:57;;;;;;;19.42;11.98;;;5.00;99.90;;;;;;5071708;28;20378;-79
2022/12/03 05:00:23;;;;;;;21.58;13.68;;;5.00;99.90;;;;;;5079580;28;20020;-80
2022/12/03 05:02:49;;;;;;;16.98;11.73;;;5.00;99.90;;;;;;5072051;28;20473;-80
2022/12/03 05:05:14;;;;;;;20.90;12.40;;;5.00;99.90;;;;;;5071339;28;20028;-80
2022/12/03 05:07:40;;;;;;;19.23;12.73;;;5.00;99.90;;;;;;5070579;28;20027;-80
2022/12/03 05:10:06;;;;;;;20.15;12.80;;;5.00;99.90;;;;;;5070194;28;20603;-80
2022/12/03 05:12:32;;;;;;;20.23;12.57;;;5.00;99.90;;;;;;5071319;28;20028;-80
2022/12/03 05:14:58;;;;;;;20.08;12.82;;;4.90;99.90;;;;;;5085501;28;20025;-80
2022/12/03 05:17:23;;;;;;;20.75;12.98;;;4.90;99.90;;;;;;5071344;28;20020;-80
2022/12/03 05:22:33;;;;;;;20.55;12.48;;;4.90;99.90;;;;;;5071703;28;20051;-80
2022/12/03 05:24:59;;;;;;;22.00;13.85;;;4.80;99.90;;;;;;5083136;28;20033;-80
2022/12/03 05:27:25;;;;;;;20.65;12.80;;;4.80;99.90;;;;;;5083323;28;20531;-80
2022/12/03 05:29:51;;;;;;;18.27;11.77;;;4.80;99.90;;;;;;5087194;28;20024;-80
2022/12/03 05:32:17;;;;;;;20.83;13.00;;;4.80;99.90;;;;;;5071755;28;20105;-79
2022/12/03 05:34:43;;;;;;;22.38;13.25;;;4.70;99.90;;;;;;5071224;28;20092;-80
2022/12/03 05:37:09;;;;;;;20.63;12.93;;;4.60;99.90;;;;;;5071177;28;20517;-80
2022/12/03 05:39:34;;;;;;;20.38;12.80;;;4.60;99.90;;;;;;5070068;28;20465;-80
2022/12/03 05:43:00;;;;;;;19.60;13.35;;;4.60;99.90;;;;;;5069813;28;20425;-80
2022/12/03 05:44:55;;;;;;;19.80;12.63;;;4.60;99.90;;;;;;5050545;28;20067;-80
2022/12/03 05:47:20;;;;;;;19.10;12.95;;;4.70;99.90;;;;;;5068789;28;20056;-80
2022/12/03 05:49:46;;;;;;;23.33;13.88;;;4.70;99.90;;;;;;5058683;28;20489;-80
2022/12/03 05:52:12;;;;;;;20.05;13.50;;;4.70;99.90;;;;;;5069668;28;20025;-80
2022/12/03 05:54:37;;;;;;;19.80;13.02;;;4.70;99.90;;;;;;5070627;28;20032;-80
2022/12/03 05:57:03;;;;;;;20.50;13.85;;;4.80;99.90;;;;;;5071176;28;20024;-80
2022/12/03 05:59:29;;;;;;;19.85;12.63;;;4.70;99.90;;;;;;5074121;28;20485;-79
2022/12/03 06:01:54;;;;;;;20.08;12.60;;;4.70;99.90;;;;;;5073851;28;20521;-79
2022/12/03 06:04:20;;;;;;;19.92;12.38;;;4.70;99.90;;;;;;5070975;28;20409;-80
2022/12/03 06:06:46;;;;;;;17.85;12.23;;;4.60;99.90;;;;;;5070695;28;20413;-79
2022/12/03 06:09:12;;;;;;;20.15;12.57;;;4.60;99.90;;;;;;5074101;28;20024;-79
2022/12/03 06:11:39;;;;;;;19.77;12.73;;;4.60;99.90;;;;;;5073615;28;20025;-79
2022/12/03 06:14:05;;;;;;;19.65;12.68;;;4.60;99.90;;;;;;5073767;28;20020;-79
2022/12/03 06:16:30;;;;;;;20.10;12.60;;;4.60;99.90;;;;;;5077117;28;20031;-79
2022/12/03 06:18:56;;;;;;;19.90;13.02;;;4.60;99.90;;;;;;5085818;28;20030;-79
2022/12/03 06:21:22;;;;;;;17.42;11.48;;;4.60;99.90;;;;;;5074540;28;20097;-79
2022/12/03 06:23:48;;;;;;;19.70;12.50;;;4.50;99.90;;;;;;5074652;28;20490;-79
2022/12/03 06:26:14;;;;;;;18.77;11.40;;;4.60;99.90;;;;;;5074612;28;20044;-79
2022/12/03 06:28:44;;;;;;;19.02;11.80;;;4.60;99.90;;;;;;5074634;28;20036;-80
2022/12/03 06:31:10;;;;;;;19.80;12.23;;;4.50;99.90;;;;;;5076824;28;20086;-80
2022/12/03 06:33:35;;;;;;;21.25;11.95;;;4.50;99.90;;;;;;5074740;28;20456;-81
2022/12/03 06:36:01;;;;;;;18.48;11.63;;;4.50;99.90;;;;;;5074487;28;20039;-80
2022/12/03 06:38:27;;;;;;;18.30;12.52;;;4.60;99.90;;;;;;5073535;28;20505;-79
2022/12/03 06:40:52;;;;;;;17.85;11.90;;;4.50;99.90;;;;;;5072975;28;20025;-79
2022/12/03 06:43:18;;;;;;;17.80;11.80;;;4.50;99.90;;;;;;5074490;28;20035;-79
2022/12/03 06:45:44;;;;;;;16.52;10.85;;;4.50;99.90;;;;;;5074054;28;20074;-80
2022/12/03 06:48:09;;;;;;;19.25;12.20;;;4.50;99.90;;;;;;5074790;28;20033;-80
2022/12/03 06:50:35;;;;;;;18.63;12.02;;;4.50;99.90;;;;;;5073971;28;20080;-80
2022/12/03 06:53:01;;;;;;;18.35;12.85;;;4.40;99.90;;;;;;5072713;28;20512;-80
2022/12/03 06:55:27;;;;;;;18.77;12.20;;;4.40;99.90;;;;;;5073998;28;20066;-80
2022/12/03 06:57:52;;;;;;;21.05;12.40;;;4.50;99.90;;;;;;5072861;28;20025;-80
2022/12/03 07:00:18;;;;;;;20.08;13.18;;;4.40;99.90;;;;;;5082187;28;20028;-80
2022/12/03 07:02:44;;;;;;;18.45;11.75;;;4.30;99.90;;;;;;5074062;28;20040;-80
2022/12/03 07:05:10;;;;;;;17.50;11.23;;;4.30;99.90;;;;;;5073602;28;20027;-80
2022/12/03 07:07:35;;;;;;;16.20;11.23;;;4.40;99.90;;;;;;5073914;28;20036;-80
2022/12/03 07:10:02;;;;;;;17.75;11.82;;;4.40;99.90;;;;;;5085912;28;20501;-79
2022/12/03 07:12:27;;;;;;;18.23;11.57;;;4.40;99.90;;;;;;5072460;28;20024;-80
2022/12/03 07:14:53;;;;;;;16.17;11.35;;;4.40;99.90;;;;;;5073739;28;20013;-80
2022/12/03 07:17:19;;;;;;;17.67;11.18;;;4.40;99.90;;;;;;5073836;28;20028;-80
2022/12/03 07:19:44;;;;;;;16.38;11.68;;;4.40;99.90;;;;;;5073597;28;20040;-80
2022/12/03 07:22:10;;;;;;;17.88;11.63;;;4.40;99.90;;;;;;5073827;28;20654;-80
2022/12/03 07:24:36;;;;;;;15.00;10.90;;;4.50;99.90;;;;;;5073628;28;20066;-80
2022/12/03 07:27:01;;;;;;;16.48;10.43;;;4.40;99.90;;;;;;5081965;28;20532;-80
2022/12/03 07:29:27;;;;;;;16.02;10.90;;;4.40;99.90;;;;;;5076938;28;20525;-80
2022/12/03 07:31:53;;;;;;;16.48;10.88;;;4.50;99.90;;;;;;5073648;28;20020;-80
2022/12/03 07:34:18;;;;;;;17.35;12.00;;;4.50;99.90;;;;;;5073569;28;20074;-80
2022/12/03 07:36:44;;;;;;;18.02;11.20;;;4.40;99.90;;;;;;5073315;28;20035;-80
2022/12/03 07:39:10;;;;;;;17.98;12.05;;;4.40;99.90;;;;;;5072027;28;20506;-79
2022/12/03 07:41:35;;;;;;;18.10;11.73;;;4.50;99.90;;;;;;5073355;28;20542;-80
2022/12/03 07:44:01;;;;;;;20.95;11.80;;;4.50;99.90;;;;;;5073057;28;20501;-79
2022/12/03 07:46:27;;;;;;;19.55;11.90;;;4.50;99.90;;;;;;5081465;28;20409;-79
2022/12/03 07:48:52;;;;;;;18.42;12.35;;;4.50;99.90;;;;;;5078357;28;20410;-80
2022/12/03 07:51:18;;;;;;;17.38;11.73;;;4.50;99.90;;;;;;5071441;28;20021;-79
2022/12/03 07:53:44;;;;;;;20.23;13.25;;;4.40;99.90;;;;;;5072980;28;20016;-80
2022/12/03 07:56:09;;;;;;;18.58;12.02;;;4.50;99.90;;;;;;5071804;28;20107;-79
2022/12/03 07:58:35;;;;;;;18.17;11.90;;;4.60;99.90;;;;;;5072369;28;20567;-80
2022/12/03 08:01:01;;;;;;;22.10;12.77;;;4.60;99.90;;;;;;5073139;28;20410;-79
2022/12/03 08:03:27;;;;;;;17.20;11.63;;;4.60;99.90;;;;;;5072828;28;20103;-79
2022/12/03 08:05:52;;;;;;;21.98;13.73;;;4.60;99.90;;;;;;5071455;28;20032;-80
2022/12/03 08:08:18;;;;;;;18.80;12.40;;;4.60;99.90;;;;;;5072878;28;20030;-80
2022/12/03 08:10:44;;;;;;;17.00;12.00;;;4.70;99.90;;;;;;5071622;28;20035;-79
2022/12/03 08:13:15;;;;;;;19.85;12.82;;;4.70;99.90;;;;;;5072139;28;20028;-79
2022/12/03 08:15:41;;;;;;;18.10;13.25;;;4.70;99.90;;;;;;5072800;28;20026;-79
2022/12/03 08:18:13;;;;;;;19.67;13.02;;;4.70;99.90;;;;;;5074699;28;20029;-79
2022/12/03 08:20:41;;;;;;;19.15;12.85;;;4.90;99.90;;;;;;5071405;28;20063;-79
2022/12/03 08:23:22;;;;;;;17.58;12.35;;;4.90;99.90;;;;;;5073119;28;20051;-78
2022/12/03 08:25:49;;;;;;;18.83;12.63;;;5.10;99.90;;;;;;5084109;28;20048;-78
2022/12/03 08:28:25;;;;;;;20.45;13.30;;;5.20;99.90;;;;;;5073710;28;20269;-78
2022/12/03 08:31:06;;;;;;;20.80;13.18;;;5.30;99.90;;;;;;5069121;28;20021;-78
2022/12/03 08:33:34;;;;;;;19.13;12.43;;;5.40;99.90;;;;;;5062440;28;20501;-78
2022/12/03 08:36:11;;;;;;;21.55;12.50;;;5.60;99.90;;;;;;5072726;28;20024;-79
2022/12/03 08:38:37;;;;;;;20.55;13.15;;;5.60;99.90;;;;;;5069234;28;20035;-79
2022/12/03 08:41:12;;;;;;;21.75;13.75;;;5.60;99.90;;;;;;5074185;28;20032;-79
2022/12/03 08:43:42;;;;;;;23.52;15.38;;;5.60;99.90;;;;;;5071203;28;20036;-78
2022/12/03 08:46:17;;;;;;;23.20;16.03;;;5.80;99.90;;;;;;5073982;28;20028;-79
2022/12/03 08:48:45;;;;;;;23.95;14.95;;;5.80;99.90;;;;;;5077561;28;20017;-78
2022/12/03 08:51:21;;;;;;;22.17;13.98;;;6.10;99.90;;;;;;5070946;28;20082;-79
2022/12/03 08:53:49;;;;;;;22.55;14.38;;;6.50;99.90;;;;;;5070812;28;20004;-78
2022/12/03 08:56:20;;;;;;;24.15;14.80;;;6.80;99.90;;;;;;5070792;28;20098;-78
2022/12/03 08:58:57;;;;;;;27.05;15.70;;;6.80;99.90;;;;;;5070596;28;20033;-78
2022/12/03 09:01:40;;;;;;;24.17;15.32;;;6.20;99.90;;;;;;5067469;28;20111;-78
2022/12/03 09:04:29;;;;;;;22.83;14.15;;;6.00;99.90;;;;;;5068283;28;20023;-78
2022/12/03 09:06:56;;;;;;;20.73;13.45;;;6.00;99.90;;;;;;5067864;28;20497;-78
2022/12/03 09:09:23;;;;;;;21.85;13.95;;;6.10;99.90;;;;;;5071624;28;20166;-78
2022/12/03 09:11:49;;;;;;;20.88;13.00;;;6.20;99.90;;;;;;5077676;28;20084;-78
2022/12/03 09:14:16;;;;;;;18.73;12.43;;;6.20;99.90;;;;;;5071097;28;20021;-79
2022/12/03 09:16:42;;;;;;;24.15;14.50;;;6.40;99.90;;;;;;5084477;28;20159;-79
2022/12/03 09:19:08;;;;;;;22.10;13.60;;;6.40;99.90;;;;;;5071251;28;20021;-78
2022/12/03 09:21:34;;;;;;;22.50;13.52;;;6.40;99.90;;;;;;5088173;28;20161;-78
2022/12/03 09:23:59;;;;;;;19.70;13.10;;;6.60;99.90;;;;;;5076871;28;20106;-78
2022/12/03 09:26:26;;;;;;;19.98;12.77;;;6.60;99.90;;;;;;5069204;28;20048;-79
2022/12/03 09:28:51;;;;;;;20.48;13.50;;;6.60;99.90;;;;;;5070513;28;20029;-79
2022/12/03 09:31:17;;;;;;;18.08;11.65;;;7.00;99.90;;;;;;5070622;28;20043;-79
2022/12/03 09:33:43;;;;;;;17.48;12.63;;;7.20;99.90;;;;;;5069260;28;20103;-79
2022/12/03 09:36:08;;;;;;;16.33;11.30;;;7.10;99.90;;;;;;5069502;28;20024;-79
2022/12/03 09:38:34;;;;;;;18.20;11.60;;;7.20;99.90;;;;;;5070555;28;20572;-79
2022/12/03 09:41:00;;;;;;;16.85;11.38;;;7.20;99.90;;;;;;5071168;28;20021;-79
2022/12/03 09:43:32;;;;;;;16.98;11.25;;;7.10;99.90;;;;;;5070088;28;20039;-79
2022/12/03 09:45:57;;;;;;;17.02;10.38;;;7.30;99.90;;;;;;5085967;28;20042;-79
2022/12/03 09:48:23;;;;;;;16.42;10.52;;;7.40;99.90;;;;;;5070780;28;20020;-79
2022/12/03 09:50:50;;;;;;;18.42;12.02;;;7.20;99.90;;;;;;5070734;28;20493;-81
2022/12/03 09:53:21;;;;;;;17.00;10.85;;;7.20;99.90;;;;;;5086406;28;20017;-81
2022/12/03 09:55:48;;;;;;;;;;;7.40;99.90;;;;;;5069562;28;20020;-81
2022/12/03 09:58:16;;;;;;;19.30;12.02;;;7.30;99.90;;;;;;5070979;28;19904;-81
2022/12/03 10:00:47;;;;;;;19.35;11.73;;;7.20;99.90;;;;;;5070914;28;20087;-82
2022/12/03 10:03:16;;;;;;;15.50;10.87;;;7.10;99.90;;;;;;5070414;28;20028;-81
2022/12/03 10:05:42;;;;;;;17.92;11.52;;;7.10;99.90;;;;;;5085779;28;20270;-84
2022/12/03 10:08:11;;;;;;;19.38;11.63;;;7.20;99.90;;;;;;5070063;28;20025;-84
2022/12/03 10:10:41;;;;;;;17.38;10.93;;;7.20;99.90;;;;;;5070287;28;20021;-83
2022/12/03 10:13:11;;;;;;;19.55;11.13;;;7.40;99.90;;;;;;5084589;28;20024;-83
2022/12/03 10:15:37;;;;;;;16.80;11.40;;;7.30;99.90;;;;;;5090939;28;20016;-84
2022/12/03 10:18:17;;;;;;;18.05;11.88;;;7.30;99.90;;;;;;5089275;28;20020;-83
2022/12/03 10:20:43;;;;;;;16.10;11.35;;;7.40;99.90;;;;;;5089282;28;20028;-83
2022/12/03 10:23:17;;;;;;;17.10;11.75;;;7.30;99.90;;;;;;5090335;28;20027;-83
2022/12/03 10:26:00;;;;;;;15.07;10.65;;;7.40;99.90;;;;;;5079321;28;20064;-83
2022/12/03 10:28:31;;;;;;;15.55;10.68;;;7.50;99.90;;;;;;5068797;28;20497;-83
2022/12/03 10:30:57;;;;;;;14.88;10.13;;;7.50;99.90;;;;;;5069104;28;20028;-83
2022/12/03 10:33:29;;;;;;;14.32;9.27;;;7.40;99.90;;;;;;5070786;28;20028;-83
2022/12/03 10:35:55;;;;;;;16.17;10.43;;;7.40;99.90;;;;;;5085487;28;20035;-83
2022/12/03 10:38:22;;;;;;;16.10;10.20;;;7.40;99.90;;;;;;5069150;28;20021;-83
2022/12/03 10:40:48;;;;;;;17.85;11.88;;;7.40;99.90;;;;;;5069172;28;20025;-83
2022/12/03 10:43:18;;;;;;;17.02;11.60;;;7.40;99.90;;;;;;5068900;28;20048;-83
2022/12/03 10:45:50;;;;;;;17.02;11.40;;;7.40;99.90;;;;;;5068976;28;20027;-83
2022/12/03 10:48:26;;;;;;;15.88;10.43;;;7.40;99.90;;;;;;5060607;28;20097;-83
2022/12/03 10:50:55;;;;;;;18.50;11.35;;;7.40;99.90;;;;;;5068400;28;20047;-83
2022/12/03 10:53:25;;;;;;;18.00;10.93;;;7.40;99.90;;;;;;5068544;28;20392;-83
2022/12/03 10:55:57;;;;;;;15.00;10.27;;;7.40;99.90;;;;;;5072045;28;20035;-83
2022/12/03 10:58:32;;;;;;;17.67;10.95;;;7.40;99.90;;;;;;5060663;28;20753;-83
2022/12/03 11:01:02;;;;;;;13.43;9.95;;;7.30;99.90;;;;;;5069982;28;20493;-83
2022/12/03 11:03:32;;;;;;;14.18;9.80;;;7.30;99.90;;;;;;5072408;28;20021;-84
2022/12/03 11:06:00;;;;;;;15.20;10.40;;;7.30;99.90;;;;;;5072060;28;20116;-83
2022/12/03 11:08:34;;;;;;;14.02;9.48;;;7.30;99.90;;;;;;5072126;28;20119;-83
2022/12/03 11:11:02;;;;;;;13.32;8.98;;;7.40;99.90;;;;;;5072412;28;20074;-83
2022/12/03 11:13:36;;;;;;;16.52;10.60;;;7.50;99.90;;;;;;5071767;28;20036;-85
2022/12/03 11:16:04;;;;;;;15.15;10.20;;;7.50;99.90;;;;;;5072083;28;20025;-84
2022/12/03 11:18:36;;;;;;;15.82;10.55;;;7.50;99.90;;;;;;5071619;28;20036;-85
2022/12/03 11:21:03;;;;;;;;;;;7.60;99.90;;;;;;5072995;28;20089;-85
2022/12/03 11:23:44;;;;;;;16.55;10.68;;;7.50;99.90;;;;;;5071201;28;19916;-85
2022/12/03 11:26:36;;;;;;;15.82;10.55;;;7.60;99.90;;;;;;5070174;28;20048;-85
2022/12/03 11:29:02;;;;;;;;;;;7.50;99.90;;;;;;5032196;28;20075;-84
2022/12/03 11:31:47;;;;;;;16.27;10.77;;;7.60;99.90;;;;;;5013076;28;19905;-84
2022/12/03 11:34:19;;;;;;;13.35;9.43;;;7.60;99.90;;;;;;5024889;28;20044;-84
2022/12/03 11:37:09;;;;;;;16.30;10.13;;;7.60;99.90;;;;;;5009464;28;20065;-84
2022/12/03 11:39:49;;;;;;;12.65;8.77;;;7.70;99.90;;;;;;5022790;28;20046;-86
2022/12/03 11:42:27;;;;;;;16.30;10.82;;;7.40;99.90;;;;;;5009609;28;20030;-85
2022/12/03 11:45:04;;;;;;;17.02;11.70;;;7.40;99.90;;;;;;5002950;28;20037;-85
2022/12/03 11:47:35;;;;;;;18.95;11.88;;;7.30;99.90;;;;;;5013151;28;20037;-85
2022/12/03 11:50:11;;;;;;;17.27;10.73;;;7.40;99.90;;;;;;5004667;28;20547;-86
2022/12/03 11:52:43;;;;;;;16.05;11.98;;;7.30;99.90;;;;;;5009032;28;20030;-86
2022/12/03 11:55:33;;;;;;;17.75;11.52;;;7.40;99.90;;;;;;5027683;28;20083;-85
2022/12/03 11:58:02;;;;;;;18.80;12.47;;;7.40;99.90;;;;;;5007917;28;20030;-85
2022/12/03 12:00:27;;;;;;;21.45;12.40;;;7.40;99.90;;;;;;5020985;28;20072;-85
2022/12/03 12:02:55;;;;;;;17.92;12.10;;;7.30;99.90;;;;;;5012605;28;20064;-85
2022/12/03 12:05:33;;;;;;;19.95;12.77;;;7.40;99.90;;;;;;5051797;28;20089;-85
2022/12/03 12:08:00;;;;;;;21.60;12.38;;;7.50;99.90;;;;;;5092010;28;20040;-85
2022/12/03 12:10:40;;;;;;;17.83;12.43;;;7.40;99.90;;;;;;5075142;28;20032;-85
2022/12/03 12:13:23;;;;;;;18.65;11.88;;;7.50;99.90;;;;;;5078143;28;20051;-85
2022/12/03 12:15:48;;;;;;;16.52;12.30;;;7.40;99.90;;;;;;5077122;28;20497;-85
2022/12/03 12:18:44;;;;;;;17.85;12.00;;;7.50;99.90;;;;;;5079078;28;20016;-85
2022/12/03 12:21:46;;;;;;;19.55;12.45;;;7.40;99.90;;;;;;5074978;28;20032;-85
2022/12/03 12:24:39;;;;;;;18.73;12.65;;;7.40;99.90;;;;;;5079770;28;20040;-85
2022/12/03 12:27:38;;;;;;;16.58;11.40;;;7.50;99.90;;;;;;5059700;28;20025;-85
2022/12/03 12:30:33;;;;;;;17.60;11.45;;;7.50;99.90;;;;;;5069710;28;20037;-85
2022/12/03 12:33:34;;;;;;;15.85;11.05;;;7.60;99.90;;;;;;5048472;28;20034;-85
2022/12/03 12:36:07;;;;;;;16.75;11.40;;;7.50;99.90;;;;;;4987742;28;20080;-85
2022/12/03 12:38:33;;;;;;;16.95;11.57;;;7.50;99.90;;;;;;5008738;28;20125;-85
2022/12/03 12:41:06;;;;;;;17.40;10.98;;;7.50;99.90;;;;;;4989462;28;20120;-86
2022/12/03 12:43:33;;;;;;;15.88;10.82;;;7.50;99.90;;;;;;4991874;28;20045;-85
2022/12/03 12:46:05;;;;;;;15.95;11.00;;;7.60;99.90;;;;;;5006819;28;20034;-85
2022/12/03 12:48:33;;;;;;;15.43;10.85;;;7.60;99.90;;;;;;4979693;28;20022;-84
2022/12/03 12:51:00;;;;;;;16.63;10.98;;;7.70;99.90;;;;;;4994495;28;20034;-85
2022/12/03 12:53:44;;;;;;;15.38;10.50;;;7.70;99.90;;;;;;4991930;28;20026;-85
2022/12/03 12:56:26;;;;;;;15.48;9.95;;;7.90;99.90;;;;;;4989262;28;20154;-85
2022/12/03 12:58:52;;;;;;;;;;;7.80;99.90;;;;;;4976886;28;20066;-85
2022/12/03 13:01:29;;;;;;;14.88;9.73;;;7.80;99.90;;;;;;4988438;28;19913;-85
2022/12/03 13:03:56;;;;;;;14.55;10.07;;;7.70;99.90;;;;;;4988163;28;20037;-85
2022/12/03 13:06:29;;;;;;;15.82;10.45;;;7.80;99.90;;;;;;4994109;28;20153;-84